Time;durP1;ratioP1;P1;durP2;ratioP2;P2;SDS_P1;SDS_P2;PMS_P1;PMS_P2;Temp;Humidity;BMP_temperature;BMP_pressure;BME280_temperature;BME280_humidity;BME280_pressure;Samples;Min_cycle;Max_cycle;Signal;HPM_P1;HPM_P2
2023/10/03 00:04:19;;;;;;;9.38;6.68;;;20.40;79.60;;;;;;10491333;28;20059;-59
2023/10/03 00:09:20;;;;;;;9.60;7.28;;;20.40;79.50;;;;;;10473628;28;20025;-59
2023/10/03 00:14:20;;;;;;;10.10;7.32;;;20.40;79.50;;;;;;10472681;28;20040;-58
2023/10/03 00:19:22;;;;;;;8.15;6.85;;;20.40;79.50;;;;;;10472950;28;20081;-59
2023/10/03 00:24:23;;;;;;;9.77;6.35;;;20.40;79.50;;;;;;10490634;28;20020;-59
2023/10/03 00:29:29;;;;;;;8.63;7.28;;;20.40;79.50;;;;;;10490750;28;20495;-59
2023/10/03 00:34:30;;;;;;;10.43;7.35;;;20.40;79.40;;;;;;10490448;28;20687;-58
2023/10/03 00:39:31;;;;;;;10.57;6.88;;;20.40;79.40;;;;;;10473036;28;20024;-59
2023/10/03 00:44:33;;;;;;;10.20;7.40;;;20.40;79.30;;;;;;10490249;28;20059;-59
2023/10/03 00:49:38;;;;;;;10.38;7.38;;;20.40;79.40;;;;;;10473087;28;20482;-59
2023/10/03 00:54:40;;;;;;;10.25;6.90;;;20.30;79.30;;;;;;10472552;28;20037;-60
2023/10/03 00:59:40;;;;;;;10.88;7.35;;;20.30;79.30;;;;;;10472542;28;20040;-60
2023/10/03 01:04:41;;;;;;;9.32;7.22;;;20.30;79.30;;;;;;10489945;28;20035;-59
2023/10/03 01:09:42;;;;;;;11.07;7.53;;;20.30;79.30;;;;;;10490008;28;20040;-59
2023/10/03 01:14:43;;;;;;;10.35;6.50;;;20.30;79.20;;;;;;10489747;28;20048;-59
2023/10/03 01:19:44;;;;;;;11.70;7.00;;;20.30;79.20;;;;;;10489990;28;20031;-59
2023/10/03 01:24:45;;;;;;;11.57;7.63;;;20.30;79.20;;;;;;10489767;28;20052;-58
2023/10/03 01:29:45;;;;;;;9.95;7.63;;;20.30;79.20;;;;;;10489855;28;20028;-59
2023/10/03 01:34:46;;;;;;;10.25;8.15;;;20.30;79.20;;;;;;10488413;28;20025;-58
2023/10/03 01:39:47;;;;;;;13.43;7.32;;;20.30;79.10;;;;;;10491344;28;20040;-59
2023/10/03 01:44:50;;;;;;;11.63;8.10;;;20.30;79.20;;;;;;10496811;28;20024;-59
2023/10/03 01:49:51;;;;;;;12.13;8.38;;;20.30;79.10;;;;;;10496790;28;20382;-59
2023/10/03 01:54:52;;;;;;;11.60;8.27;;;20.30;79.10;;;;;;10496495;28;20043;-59
2023/10/03 01:59:53;;;;;;;10.20;7.70;;;20.30;79.10;;;;;;10495954;28;20028;-59
2023/10/03 02:04:53;;;;;;;11.35;7.07;;;20.30;79.10;;;;;;10451567;28;20035;-59
2023/10/03 02:09:55;;;;;;;12.52;8.30;;;20.30;79.10;;;;;;10495490;28;20029;-59
2023/10/03 02:14:56;;;;;;;11.32;7.88;;;20.30;79.10;;;;;;10495388;28;20041;-60
2023/10/03 02:19:59;;;;;;;9.93;7.63;;;20.30;79.00;;;;;;10495301;28;20040;-58
2023/10/03 02:25:01;;;;;;;13.27;8.80;;;20.30;78.90;;;;;;10494627;28;20035;-59
2023/10/03 02:30:11;;;;;;;12.02;8.55;;;20.30;78.90;;;;;;10494455;28;20107;-59
2023/10/03 02:35:14;;;;;;;14.00;9.65;;;20.30;78.80;;;;;;10494936;28;20059;-59
2023/10/03 02:40:21;;;;;;;11.88;9.05;;;20.30;78.80;;;;;;10494252;28;20033;-59
2023/10/03 02:45:25;;;;;;;11.43;8.20;;;20.30;78.80;;;;;;10494656;28;20407;-59
2023/10/03 02:50:32;;;;;;;12.80;9.20;;;20.30;78.80;;;;;;10493545;28;20467;-59
2023/10/03 02:55:33;;;;;;;12.07;8.35;;;20.30;78.80;;;;;;10492612;28;20028;-59
2023/10/03 03:00:35;;;;;;;13.80;8.35;;;20.30;78.90;;;;;;10493469;28;20533;-59
2023/10/03 03:05:37;;;;;;;13.65;8.18;;;20.30;79.00;;;;;;10494000;28;20040;-59
2023/10/03 03:10:38;;;;;;;10.60;7.72;;;20.30;79.40;;;;;;10492871;28;20090;-60
2023/10/03 03:15:45;;;;;;;12.10;7.80;;;20.30;78.90;;;;;;10493151;28;20385;-59
2023/10/03 03:20:53;;;;;;;12.65;8.57;;;20.30;78.90;;;;;;10475715;28;20190;-59
2023/10/03 03:26:03;;;;;;;12.45;8.02;;;20.30;78.90;;;;;;10491942;28;20028;-65
2023/10/03 03:31:22;;;;;;;13.55;8.73;;;20.30;78.80;;;;;;10488752;28;20433;-62
2023/10/03 03:36:34;;;;;;;12.48;9.10;;;20.30;79.20;;;;;;10488599;28;20032;-59
2023/10/03 03:41:37;;;;;;;14.23;9.52;;;20.40;79.20;;;;;;10487427;28;20048;-60
2023/10/03 03:46:43;;;;;;;14.02;9.73;;;20.40;79.10;;;;;;10488504;28;20024;-58
2023/10/03 03:51:44;;;;;;;14.82;9.27;;;20.40;79.00;;;;;;10472069;28;20017;-59
2023/10/03 03:56:45;;;;;;;14.15;8.88;;;20.40;78.90;;;;;;10489961;28;20021;-60
2023/10/03 04:01:46;;;;;;;16.35;10.90;;;20.40;78.90;;;;;;10472116;28;20020;-60
2023/10/03 04:06:46;;;;;;;11.23;7.78;;;20.40;79.00;;;;;;10488805;28;20500;-60
2023/10/03 04:11:47;;;;;;;12.63;7.15;;;20.30;78.90;;;;;;10488066;28;20036;-57
2023/10/03 04:16:51;;;;;;;13.20;8.52;;;20.30;78.90;;;;;;10472216;28;20045;-57
2023/10/03 04:21:52;;;;;;;12.70;8.70;;;20.30;78.80;;;;;;10476916;28;20037;-59
2023/10/03 04:26:54;;;;;;;17.08;9.93;;;20.30;78.90;;;;;;10439554;28;20526;-58
2023/10/03 04:31:54;;;;;;;14.85;10.15;;;20.30;78.80;;;;;;10488665;28;20035;-59
2023/10/03 04:36:55;;;;;;;15.48;9.07;;;20.30;78.80;;;;;;10488804;28;20226;-59
2023/10/03 04:41:58;;;;;;;14.55;9.68;;;20.30;78.80;;;;;;10487895;28;20387;-59
2023/10/03 04:46:58;;;;;;;12.98;8.80;;;20.30;78.80;;;;;;10488331;28;20119;-57
2023/10/03 04:51:59;;;;;;;14.25;8.60;;;20.30;78.80;;;;;;10487297;28;20527;-58
2023/10/03 04:57:00;;;;;;;12.75;8.98;;;20.20;78.70;;;;;;10487678;28;20098;-59
2023/10/03 05:02:01;;;;;;;14.00;7.82;;;20.30;78.80;;;;;;10451784;28;20029;-58
2023/10/03 05:07:02;;;;;;;11.93;7.75;;;20.30;79.00;;;;;;10479594;28;20025;-59
2023/10/03 05:12:04;;;;;;;11.23;7.47;;;20.40;78.80;;;;;;10471756;28;20032;-58
2023/10/03 05:17:05;;;;;;;16.80;8.90;;;20.40;78.90;;;;;;10491527;28;20373;-58
2023/10/03 05:22:08;;;;;;;15.15;8.18;;;20.40;78.60;;;;;;10489449;28;20032;-58
2023/10/03 05:27:09;;;;;;;21.17;8.10;;;20.50;79.10;;;;;;10497802;28;20515;-59
2023/10/03 05:32:10;;;;;;;16.45;7.93;;;20.50;78.70;;;;;;10497365;28;20036;-59
2023/10/03 05:37:11;;;;;;;21.58;8.02;;;20.50;78.60;;;;;;10497132;28;20066;-59
2023/10/03 05:42:11;;;;;;;28.52;8.75;;;20.50;78.60;;;;;;10491812;28;20036;-60
2023/10/03 05:47:12;;;;;;;20.52;8.95;;;20.50;78.80;;;;;;10492806;28;20041;-61
2023/10/03 05:52:13;;;;;;;25.17;8.60;;;20.40;78.70;;;;;;10495079;28;20115;-59
2023/10/03 05:57:14;;;;;;;24.83;8.68;;;20.40;78.70;;;;;;10496336;28;20028;-61
2023/10/03 06:02:15;;;;;;;20.00;7.78;;;20.50;78.70;;;;;;10486351;28;20028;-58
2023/10/03 06:07:15;;;;;;;29.60;7.60;;;20.50;78.60;;;;;;10496044;28;20032;-59
2023/10/03 06:12:16;;;;;;;14.65;7.05;;;20.50;78.50;;;;;;10495640;28;20039;-59
2023/10/03 06:17:18;;;;;;;14.98;6.95;;;20.50;78.60;;;;;;10495318;28;20036;-59
2023/10/03 06:22:19;;;;;;;15.20;8.05;;;20.40;78.50;;;;;;10495154;28;20024;-59
2023/10/03 06:27:19;;;;;;;12.25;7.20;;;20.40;78.50;;;;;;10494869;28;20028;-59
2023/10/03 06:32:21;;;;;;;12.00;7.50;;;20.40;78.50;;;;;;10494804;28;20039;-60
2023/10/03 06:37:23;;;;;;;13.30;6.85;;;20.40;78.70;;;;;;10494858;28;20510;-57
2023/10/03 06:42:25;;;;;;;13.15;6.80;;;20.30;78.50;;;;;;10492515;28;20368;-58
2023/10/03 06:47:26;;;;;;;14.70;6.47;;;20.30;78.60;;;;;;10493674;28;20039;-59
2023/10/03 06:52:28;;;;;;;13.35;6.57;;;20.40;78.70;;;;;;10474597;28;20028;-59
2023/10/03 06:57:29;;;;;;;13.05;5.88;;;20.40;78.80;;;;;;10479165;28;20033;-60
2023/10/03 07:02:30;;;;;;;12.10;6.63;;;20.40;78.50;;;;;;10493061;28;20036;-59
2023/10/03 07:07:31;;;;;;;13.15;6.95;;;20.40;78.50;;;;;;10493472;28;20931;-59
2023/10/03 07:12:31;;;;;;;8.25;5.50;;;20.40;78.40;;;;;;10474510;28;20055;-59
2023/10/03 07:17:32;;;;;;;11.35;6.32;;;20.30;78.40;;;;;;10473365;28;20044;-59
2023/10/03 07:22:33;;;;;;;9.23;5.18;;;20.30;78.40;;;;;;10492200;28;20039;-59
2023/10/03 07:27:34;;;;;;;11.32;5.82;;;20.30;78.40;;;;;;10489362;28;20027;-58
2023/10/03 07:32:35;;;;;;;9.82;5.78;;;20.30;78.40;;;;;;10490232;28;20336;-60
2023/10/03 07:37:36;;;;;;;8.98;5.03;;;20.30;78.50;;;;;;10483337;28;20086;-59
2023/10/03 07:42:40;;;;;;;8.63;5.68;;;20.30;78.50;;;;;;10485750;28;20032;-60
2023/10/03 07:47:41;;;;;;;10.23;5.90;;;20.30;78.50;;;;;;10483112;28;20033;-60
2023/10/03 07:52:44;;;;;;;10.07;6.22;;;20.30;78.50;;;;;;10468970;28;20466;-58
2023/10/03 07:57:46;;;;;;;6.70;4.60;;;20.30;78.50;;;;;;10485842;28;20051;-59
2023/10/03 08:02:49;;;;;;;10.18;5.55;;;20.30;78.30;;;;;;10487029;28;20078;-60
2023/10/03 08:07:50;;;;;;;6.97;4.57;;;20.30;78.30;;;;;;10487299;28;20037;-60
2023/10/03 08:12:52;;;;;;;8.50;5.53;;;20.30;78.30;;;;;;10487303;28;20097;-60
2023/10/03 08:17:53;;;;;;;8.00;4.53;;;20.30;78.30;;;;;;10490297;28;20040;-59
2023/10/03 08:22:54;;;;;;;6.57;4.47;;;20.30;78.30;;;;;;10488200;28;20025;-60
2023/10/03 08:27:55;;;;;;;6.75;4.15;;;20.30;78.30;;;;;;10462175;28;20058;-60
2023/10/03 08:33:04;;;;;;;7.20;4.45;;;20.30;78.30;;;;;;10461464;28;20028;-60
2023/10/03 08:38:13;;;;;;;;;;;20.30;78.30;;;;;;10480348;28;20034;-60
2023/10/03 08:43:13;;;;;;;6.13;4.57;;;20.30;78.30;;;;;;10488728;28;19939;-58
2023/10/03 08:48:15;;;;;;;7.32;3.63;;;20.30;78.30;;;;;;10472608;28;20360;-59
2023/10/03 08:53:16;;;;;;;6.55;3.83;;;20.20;78.30;;;;;;10479727;28;20039;-60
2023/10/03 08:58:25;;;;;;;4.57;2.85;;;20.20;78.30;;;;;;10478874;28;20032;-60
2023/10/03 09:03:46;;;;;;;6.20;3.60;;;20.20;78.30;;;;;;10496052;28;20056;-60
2023/10/03 09:09:07;;;;;;;5.57;3.97;;;20.20;78.30;;;;;;10493956;28;20066;-60
2023/10/03 09:14:19;;;;;;;5.15;3.60;;;20.20;78.40;;;;;;10490228;28;20127;-60
2023/10/03 09:19:41;;;;;;;6.68;5.05;;;20.20;78.40;;;;;;10478177;28;20028;-60
2023/10/03 09:24:46;;;;;;;5.90;4.07;;;20.30;78.50;;;;;;10470726;28;20484;-60
2023/10/03 09:29:49;;;;;;;5.88;3.80;;;20.30;78.40;;;;;;10496214;28;20511;-59
2023/10/03 09:34:57;;;;;;;6.10;3.60;;;20.30;78.30;;;;;;10496003;28;20499;-59
2023/10/03 09:39:59;;;;;;;6.95;4.53;;;20.30;78.30;;;;;;10496439;28;20037;-61
2023/10/03 09:45:00;;;;;;;6.38;3.20;;;20.30;78.20;;;;;;10495785;28;20432;-59
2023/10/03 09:50:08;;;;;;;6.15;4.10;;;20.30;78.20;;;;;;10496133;28;20028;-60
2023/10/03 09:55:17;;;;;;;4.45;3.45;;;20.30;78.20;;;;;;10495218;28;20127;-60
2023/10/03 10:00:39;;;;;;;5.38;3.28;;;20.30;78.20;;;;;;10477802;28;20555;-60
2023/10/03 10:06:13;;;;;;;4.38;2.80;;;20.30;78.20;;;;;;10478809;28;20421;-60
2023/10/03 10:11:14;;;;;;;5.05;2.97;;;20.30;78.10;;;;;;10471315;28;20044;-59
2023/10/03 10:16:20;;;;;;;7.28;3.40;;;20.30;78.00;;;;;;10493781;28;20666;-58
2023/10/03 10:21:31;;;;;;;7.15;3.30;;;20.40;78.10;;;;;;10493308;28;20024;-58
2023/10/03 10:26:32;;;;;;;4.10;3.10;;;20.40;78.10;;;;;;10494013;28;20032;-59
2023/10/03 10:31:43;;;;;;;4.03;2.53;;;20.40;77.90;;;;;;10480200;28;20060;-57
2023/10/03 10:37:09;;;;;;;6.20;3.40;;;20.40;78.00;;;;;;10473630;28;20379;-57
2023/10/03 10:42:10;;;;;;;5.97;2.85;;;20.40;77.90;;;;;;10492663;28;20627;-59
2023/10/03 10:47:14;;;;;;;5.72;3.03;;;20.50;78.10;;;;;;10493784;28;20021;-58
2023/10/03 10:52:17;;;;;;;5.90;3.10;;;20.40;78.00;;;;;;10493472;28;20333;-58
2023/10/03 10:57:18;;;;;;;5.00;2.88;;;20.50;78.00;;;;;;10475580;28;20680;-59
2023/10/03 11:02:27;;;;;;;4.60;2.65;;;20.50;78.00;;;;;;10491834;28;20478;-59
2023/10/03 11:07:31;;;;;;;4.90;2.97;;;20.40;77.90;;;;;;10492745;28;20499;-60
2023/10/03 11:12:32;;;;;;;4.00;2.40;;;20.40;77.90;;;;;;10492259;28;20107;-59
2023/10/03 11:17:33;;;;;;;4.60;2.00;;;20.40;78.00;;;;;;10491894;28;20132;-58
2023/10/03 11:22:39;;;;;;;5.43;2.25;;;20.40;78.00;;;;;;10491377;28;20036;-59
2023/10/03 11:27:40;;;;;;;4.80;2.00;;;20.30;78.10;;;;;;10474073;28;20368;-59
2023/10/03 11:32:41;;;;;;;3.50;2.10;;;20.30;78.00;;;;;;10491462;28;20032;-59
2023/10/03 11:37:46;;;;;;;4.45;2.22;;;20.30;77.90;;;;;;10491806;28;20040;-59
2023/10/03 11:43:08;;;;;;;4.28;2.42;;;20.30;77.90;;;;;;10490381;28;20032;-59
2023/10/03 11:48:18;;;;;;;3.85;2.60;;;20.30;77.90;;;;;;10489546;28;20043;-59
2023/10/03 11:53:21;;;;;;;5.57;2.47;;;20.30;77.90;;;;;;10457369;28;20113;-60
2023/10/03 11:58:22;;;;;;;4.28;2.67;;;20.30;77.90;;;;;;10482716;28;20526;-60
2023/10/03 12:03:23;;;;;;;3.17;1.75;;;20.30;77.90;;;;;;10490038;28;20025;-59
2023/10/03 12:08:23;;;;;;;3.17;1.80;;;20.30;78.50;;;;;;10473135;28;20044;-59
2023/10/03 12:13:24;;;;;;;3.17;1.67;;;20.30;77.90;;;;;;10491073;28;20364;-60
2023/10/03 12:18:26;;;;;;;5.78;2.10;;;20.20;77.80;;;;;;10466263;28;20064;-57
2023/10/03 12:23:27;;;;;;;9.50;2.25;;;20.30;78.60;;;;;;10490265;28;20655;-59
2023/10/03 12:28:28;;;;;;;15.63;3.30;;;20.40;78.40;;;;;;10491402;28;20098;-59
2023/10/03 12:33:30;;;;;;;10.45;3.10;;;20.40;78.10;;;;;;10490126;28;20098;-58
2023/10/03 12:38:31;;;;;;;28.08;5.25;;;20.40;78.20;;;;;;10489728;28;20052;-59
2023/10/03 12:43:34;;;;;;;35.78;5.88;;;20.40;78.50;;;;;;10489538;28;20062;-58
2023/10/03 12:48:35;;;;;;;21.17;3.92;;;20.40;78.50;;;;;;10490509;28;20111;-59
2023/10/03 12:53:36;;;;;;;20.70;3.92;;;20.50;78.30;;;;;;10489234;28;20490;-58
2023/10/03 12:58:39;;;;;;;17.13;3.58;;;20.50;78.60;;;;;;10488822;28;20025;-58
2023/10/03 13:03:40;;;;;;;16.08;4.00;;;20.50;78.50;;;;;;10489625;28;20016;-59
2023/10/03 13:08:43;;;;;;;10.43;3.15;;;20.50;78.50;;;;;;10488791;28;20028;-58
2023/10/03 13:13:47;;;;;;;17.70;4.13;;;20.60;78.60;;;;;;10489195;28;20430;-58
2023/10/03 13:18:47;;;;;;;12.13;2.95;;;20.60;78.60;;;;;;10488980;28;20044;-58
2023/10/03 13:23:48;;;;;;;12.75;3.47;;;20.60;78.50;;;;;;10489053;28;20032;-58
2023/10/03 13:28:49;;;;;;;8.60;3.55;;;20.60;78.40;;;;;;10486391;28;20033;-59
2023/10/03 13:33:50;;;;;;;16.88;4.35;;;20.60;78.30;;;;;;10460807;28;20041;-59
2023/10/03 13:38:51;;;;;;;21.33;4.60;;;20.50;78.50;;;;;;10487705;28;20078;-58
2023/10/03 13:43:51;;;;;;;22.55;4.45;;;20.50;78.50;;;;;;10496113;28;20031;-59
2023/10/03 13:48:53;;;;;;;27.48;5.35;;;20.50;78.00;;;;;;10483320;28;20036;-59
2023/10/03 13:53:54;;;;;;;35.60;11.88;;;20.40;77.70;;;;;;10495581;28;20028;-60
2023/10/03 13:58:54;;;;;;;24.48;4.90;;;20.40;79.40;;;;;;10495457;28;20029;-60
2023/10/03 14:03:56;;;;;;;30.58;5.82;;;20.40;77.70;;;;;;10477475;28;20077;-60
2023/10/03 14:08:57;;;;;;;42.17;5.00;;;20.50;77.20;;;;;;10494572;28;20044;-61
2023/10/03 14:13:58;;;;;;;50.00;7.40;;;20.50;77.10;;;;;;10485624;28;20053;-60
2023/10/03 14:18:59;;;;;;;36.20;6.18;;;20.40;76.90;;;;;;10492756;28;20032;-59
2023/10/03 14:23:59;;;;;;;65.00;7.55;;;20.40;76.10;;;;;;10492579;28;20043;-59
2023/10/03 14:29:01;;;;;;;57.05;7.60;;;20.50;76.60;;;;;;10494496;28;20037;-58
2023/10/03 14:34:02;;;;;;;56.22;7.95;;;20.60;77.00;;;;;;10495249;28;20531;-57
2023/10/03 14:39:04;;;;;;;55.67;8.52;;;20.50;76.20;;;;;;10476534;28;20036;-58
2023/10/03 14:44:05;;;;;;;46.05;6.75;;;20.50;76.60;;;;;;10495317;28;20078;-58
2023/10/03 14:49:07;;;;;;;31.45;7.53;;;20.50;77.00;;;;;;10493552;28;20032;-57
2023/10/03 14:54:11;;;;;;;35.45;5.88;;;20.50;77.20;;;;;;10493210;28;20033;-56
2023/10/03 14:59:11;;;;;;;29.58;5.18;;;20.50;77.10;;;;;;10482846;28;20033;-57
2023/10/03 15:04:14;;;;;;;23.13;5.72;;;20.50;77.40;;;;;;10493538;28;20500;-58
2023/10/03 15:09:14;;;;;;;23.67;4.90;;;20.50;77.40;;;;;;10492457;28;20051;-56
2023/10/03 15:14:15;;;;;;;20.15;4.57;;;20.40;77.40;;;;;;10474797;28;20045;-55
2023/10/03 15:19:16;;;;;;;15.32;3.85;;;20.40;77.40;;;;;;10474105;28;20024;-57
2023/10/03 15:24:17;;;;;;;14.90;4.07;;;20.40;77.40;;;;;;10492317;28;20032;-56
2023/10/03 15:29:18;;;;;;;18.52;4.65;;;20.40;77.40;;;;;;10491424;28;20025;-57
2023/10/03 15:34:30;;;;;;;13.77;3.70;;;20.40;77.40;;;;;;10473719;28;20040;-57
2023/10/03 15:39:31;;;;;;;14.52;3.50;;;20.40;77.40;;;;;;10489089;28;20392;-57
2023/10/03 15:44:32;;;;;;;12.45;3.53;;;20.40;77.40;;;;;;10491396;28;20032;-57
2023/10/03 15:49:33;;;;;;;16.65;3.30;;;20.40;77.50;;;;;;10483964;28;20039;-58
2023/10/03 15:54:33;;;;;;;9.25;2.47;;;20.40;77.40;;;;;;10487281;28;20109;-57
2023/10/03 15:59:34;;;;;;;9.15;3.00;;;20.40;77.20;;;;;;10497154;28;20032;-55
2023/10/03 16:04:36;;;;;;;12.55;4.10;;;20.40;77.10;;;;;;10492866;28;20422;-57
2023/10/03 16:09:40;;;;;;;11.60;2.88;;;20.40;77.00;;;;;;10495862;28;20070;-57
2023/10/03 16:14:41;;;;;;;15.10;3.08;;;20.40;77.10;;;;;;10490559;28;20067;-58
2023/10/03 16:19:44;;;;;;;13.30;3.95;;;20.40;77.00;;;;;;10468219;28;20032;-59
2023/10/03 16:24:46;;;;;;;18.27;4.15;;;20.50;77.30;;;;;;10490994;28;20058;-57
2023/10/03 16:29:47;;;;;;;12.98;2.97;;;20.70;78.70;;;;;;10472879;28;20031;-57
2023/10/03 16:34:48;;;;;;;8.73;2.85;;;20.70;78.70;;;;;;10491131;28;20391;-56
2023/10/03 16:39:49;;;;;;;9.57;2.90;;;20.80;78.20;;;;;;10472371;28;20029;-58
2023/10/03 16:44:50;;;;;;;14.77;3.33;;;20.70;77.80;;;;;;10490774;28;20035;-57
2023/10/03 16:49:51;;;;;;;10.23;3.55;;;20.60;77.20;;;;;;10490367;28;20078;-56
2023/10/03 16:54:52;;;;;;;9.00;2.90;;;20.60;77.00;;;;;;10490637;28;20043;-57
2023/10/03 16:59:52;;;;;;;17.15;4.70;;;20.60;77.30;;;;;;10471980;28;20040;-57
2023/10/03 17:04:53;;;;;;;19.58;3.50;;;20.70;77.50;;;;;;10490484;28;20479;-56
2023/10/03 17:09:54;;;;;;;9.00;3.30;;;20.70;77.60;;;;;;10491986;28;20033;-57
2023/10/03 17:14:54;;;;;;;11.60;4.03;;;20.60;77.20;;;;;;10491287;28;20040;-57
2023/10/03 17:19:55;;;;;;;19.60;4.57;;;20.50;77.60;;;;;;10496291;28;20078;-57
2023/10/03 17:24:56;;;;;;;13.02;3.60;;;20.50;78.00;;;;;;10482781;28;20395;-57
2023/10/03 17:29:58;;;;;;;16.13;4.32;;;20.40;77.90;;;;;;10471146;28;20037;-56
2023/10/03 17:34:59;;;;;;;9.30;3.60;;;20.40;77.90;;;;;;10484792;28;20028;-56
2023/10/03 17:40:00;;;;;;;13.07;3.40;;;20.40;77.90;;;;;;10492597;28;20033;-56
2023/10/03 17:45:00;;;;;;;7.78;2.95;;;20.30;77.70;;;;;;10489692;28;20033;-57
2023/10/03 17:50:02;;;;;;;8.80;2.88;;;20.40;77.90;;;;;;10496154;28;20021;-57
2023/10/03 17:55:03;;;;;;;9.77;2.40;;;20.40;77.60;;;;;;10496657;28;20028;-57
2023/10/03 18:00:16;;;;;;;8.90;3.22;;;20.40;77.80;;;;;;10496180;28;20468;-57
2023/10/03 18:05:17;;;;;;;9.18;2.78;;;20.30;77.80;;;;;;10493159;28;20028;-56
2023/10/03 18:10:22;;;;;;;8.43;2.63;;;20.30;77.90;;;;;;10495620;28;20032;-57
2023/10/03 18:15:23;;;;;;;7.07;2.80;;;20.30;78.00;;;;;;10495935;28;20043;-57
2023/10/03 18:20:23;;;;;;;7.35;2.10;;;20.20;77.80;;;;;;10494674;28;20039;-55
2023/10/03 18:25:24;;;;;;;10.02;2.67;;;20.20;77.90;;;;;;10495797;28;20750;-57
2023/10/03 18:30:27;;;;;;;10.02;2.78;;;20.20;77.80;;;;;;10494861;28;20036;-57
2023/10/03 18:35:27;;;;;;;5.38;1.77;;;20.20;77.80;;;;;;10495144;28;20017;-56
2023/10/03 18:40:33;;;;;;;7.95;3.00;;;20.20;77.80;;;;;;10494300;28;20021;-57
2023/10/03 18:45:37;;;;;;;6.15;2.10;;;20.20;77.80;;;;;;10494384;28;20035;-57
2023/10/03 18:50:38;;;;;;;6.78;2.45;;;20.20;77.80;;;;;;10494449;28;20074;-57
2023/10/03 18:55:39;;;;;;;5.78;2.50;;;20.20;77.80;;;;;;10494296;28;20024;-57
2023/10/03 19:00:41;;;;;;;6.68;2.83;;;20.20;77.80;;;;;;10484288;28;20062;-56
2023/10/03 19:05:41;;;;;;;6.60;2.05;;;20.20;77.80;;;;;;10492452;28;20668;-57
2023/10/03 19:10:42;;;;;;;6.57;2.20;;;20.10;77.80;;;;;;10472049;28;20031;-57
2023/10/03 19:15:43;;;;;;;6.80;2.13;;;20.10;77.60;;;;;;10462156;28;20051;-55
2023/10/03 19:20:44;;;;;;;7.80;3.20;;;20.10;77.50;;;;;;10484932;28;20035;-56
2023/10/03 19:25:45;;;;;;;5.35;1.95;;;20.10;77.70;;;;;;10490404;28;20517;-56
2023/10/03 19:30:46;;;;;;;4.13;2.08;;;20.10;77.60;;;;;;10491411;28;20481;-56
2023/10/03 19:35:47;;;;;;;5.70;1.70;;;20.10;77.70;;;;;;10488796;28;20029;-56
2023/10/03 19:40:48;;;;;;;5.63;2.40;;;20.00;77.70;;;;;;10472276;28;20035;-56
2023/10/03 19:45:48;;;;;;;4.10;1.88;;;20.00;77.70;;;;;;10478796;28;20037;-57
2023/10/03 19:50:49;;;;;;;5.57;2.03;;;20.10;77.70;;;;;;10473834;28;20024;-57
2023/10/03 19:55:50;;;;;;;3.92;1.77;;;20.10;77.70;;;;;;10488625;28;20021;-57
2023/10/03 20:00:51;;;;;;;5.68;2.33;;;20.00;77.70;;;;;;10481672;28;20032;-57
2023/10/03 20:05:51;;;;;;;3.90;1.60;;;20.00;77.60;;;;;;10490863;28;20032;-55
2023/10/03 20:10:55;;;;;;;3.85;2.08;;;20.00;77.70;;;;;;10489047;28;20032;-57
2023/10/03 20:15:56;;;;;;;4.70;2.00;;;20.00;77.70;;;;;;10491128;28;20585;-56
2023/10/03 20:20:57;;;;;;;5.75;1.83;;;20.00;77.60;;;;;;10491103;28;20035;-57
2023/10/03 20:25:58;;;;;;;3.97;1.63;;;19.90;77.50;;;;;;10490913;28;20021;-55
2023/10/03 20:30:58;;;;;;;4.78;1.67;;;20.00;77.50;;;;;;10490578;28;20025;-57
2023/10/03 20:36:01;;;;;;;2.22;1.30;;;19.90;77.40;;;;;;10490930;28;20044;-56
2023/10/03 20:41:09;;;;;;;5.13;1.85;;;20.00;77.50;;;;;;10490274;28;20683;-57
2023/10/03 20:46:14;;;;;;;5.13;1.83;;;20.00;77.60;;;;;;10495777;28;20056;-57
2023/10/03 20:51:24;;;;;;;4.85;2.08;;;19.90;77.40;;;;;;10498920;28;20430;-56
2023/10/03 20:56:25;;;;;;;3.35;1.58;;;19.90;77.30;;;;;;10499348;28;20085;-56
2023/10/03 21:01:26;;;;;;;3.97;2.17;;;19.90;77.40;;;;;;10489082;28;20025;-57
2023/10/03 21:06:27;;;;;;;3.95;1.77;;;19.90;77.40;;;;;;10498873;28;20434;-57
2023/10/03 21:11:27;;;;;;;3.65;1.70;;;19.90;77.40;;;;;;10497665;28;20020;-56
2023/10/03 21:16:28;;;;;;;4.05;1.80;;;19.90;77.30;;;;;;10480078;28;20101;-57
2023/10/03 21:21:29;;;;;;;4.70;1.90;;;19.90;77.30;;;;;;10497699;28;20035;-57
2023/10/03 21:26:30;;;;;;;3.78;2.05;;;19.90;77.20;;;;;;10497886;28;20035;-57
2023/10/03 21:31:31;;;;;;;3.75;1.70;;;19.90;77.30;;;;;;10497477;28;20052;-56
2023/10/03 21:36:32;;;;;;;2.65;1.35;;;19.90;77.30;;;;;;10497249;28;20037;-56
2023/10/03 21:41:33;;;;;;;4.38;1.85;;;19.90;77.30;;;;;;10496819;28;20086;-56
2023/10/03 21:46:33;;;;;;;2.47;1.10;;;19.90;77.30;;;;;;10479084;28;20024;-57
2023/10/03 21:51:34;;;;;;;3.22;1.52;;;19.80;77.20;;;;;;10496445;28;20491;-56
2023/10/03 21:56:35;;;;;;;2.78;1.63;;;19.80;77.20;;;;;;10495885;28;20025;-56
2023/10/03 22:01:41;;;;;;;3.85;1.67;;;19.80;77.20;;;;;;10486127;28;20074;-56
2023/10/03 22:06:41;;;;;;;2.35;1.45;;;19.80;77.20;;;;;;10496396;28;20040;-57
2023/10/03 22:11:42;;;;;;;3.85;2.03;;;19.80;77.10;;;;;;10495721;28;20705;-57
2023/10/03 22:16:44;;;;;;;4.00;2.13;;;19.80;77.20;;;;;;10495899;28;20036;-56
2023/10/03 22:21:56;;;;;;;2.65;1.67;;;19.80;77.20;;;;;;10495417;28;20028;-56
2023/10/03 22:26:57;;;;;;;2.05;1.10;;;19.80;77.10;;;;;;10478444;28;20032;-56
2023/10/03 22:31:57;;;;;;;3.05;1.30;;;19.80;77.10;;;;;;10494526;28;20036;-56
2023/10/03 22:36:58;;;;;;;2.30;1.60;;;19.80;77.10;;;;;;10477085;28;20024;-57
2023/10/03 22:41:59;;;;;;;3.85;1.40;;;19.80;77.20;;;;;;10494628;28;20373;-57
2023/10/03 22:47:00;;;;;;;4.63;2.25;;;19.80;77.10;;;;;;10477079;28;20031;-57
2023/10/03 22:52:00;;;;;;;2.92;1.60;;;19.80;77.00;;;;;;10493952;28;20028;-56
2023/10/03 22:57:02;;;;;;;2.75;1.75;;;19.70;77.10;;;;;;10494408;28;21148;-56
2023/10/03 23:02:02;;;;;;;2.60;1.42;;;19.80;77.10;;;;;;10461562;28;20051;-56
2023/10/03 23:07:05;;;;;;;2.78;1.55;;;19.70;77.00;;;;;;10493792;28;20024;-56
2023/10/03 23:12:05;;;;;;;3.22;1.70;;;19.80;77.20;;;;;;10493603;28;20032;-56
2023/10/03 23:17:07;;;;;;;3.58;1.58;;;19.80;77.10;;;;;;10493333;28;20048;-57
2023/10/03 23:22:08;;;;;;;2.63;1.27;;;19.70;77.00;;;;;;10493036;28;20405;-57
2023/10/03 23:27:09;;;;;;;2.53;1.38;;;19.80;77.00;;;;;;10493218;28;20028;-56
2023/10/03 23:32:09;;;;;;;3.00;1.70;;;19.80;77.00;;;;;;10492014;28;20043;-57
2023/10/03 23:37:10;;;;;;;4.72;2.17;;;19.70;77.00;;;;;;10492591;28;20682;-57
2023/10/03 23:42:12;;;;;;;2.70;1.20;;;19.70;77.00;;;;;;10474051;28;20031;-55
2023/10/03 23:47:13;;;;;;;2.63;1.38;;;19.70;77.00;;;;;;10491921;28;20479;-56
2023/10/03 23:52:14;;;;;;;2.88;1.80;;;19.70;76.90;;;;;;10473921;28;20051;-57
2023/10/03 23:57:18;;;;;;;4.93;2.35;;;19.70;77.00;;;;;;10491819;28;20043;-56
